NCAR-RAP Real-Time Weather Data

Output produced by METARs form (25 March 2019  01:17 UTC)
found at http://weather.rap.ucar.edu/surface/
 
KACY 250054Z 20010KT 10SM CLR 10/02 A3010 RMK AO2 SLP192 T01000017
KACY 242354Z 20007KT 10SM SCT110 11/02 A3011 RMK AO2 SLP196 T01110022 10167 20111 53004
KACY 242254Z 21006KT 10SM SCT120 12/02 A3011 RMK AO2 SLP196 T01170017
KACY 242154Z 19010KT 10SM CLR 13/00 A3008 RMK AO2 SLP188 T01330000
KACY 242054Z 24017G23KT 10SM CLR 16/M09 A3010 RMK AO2 SLP191 T01611089 56026
KACY 241954Z 23010G18KT 10SM CLR 17/M10 A3012 RMK AO2 SLP197 T01671100
KACY 241854Z 27012G23KT 10SM CLR 17/M08 A3014 RMK AO2 SLP207 T01671083
KACY 241754Z 27007G18KT 240V310 10SM CLR 16/M07 A3017 RMK AO2 SLP217 T01561067 10161 20028 58026
KACY 241654Z 24008G17KT 10SM CLR 13/M07 A3021 RMK AO2 SLP228 T01331067